sensor_id;sensor_type;location;lat;lon;timestamp;P1;durP1;ratioP1;P2;durP2;ratioP2
76749;SDS011;66447;35.844;14.468;2023-04-29T00:09:31;4.18;;;2.47;;
76749;SDS011;66447;35.844;14.468;2023-04-29T00:24:32;4.40;;;2.80;;
76749;SDS011;66447;35.844;14.468;2023-04-29T00:39:33;9.27;;;3.13;;
76749;SDS011;66447;35.844;14.468;2023-04-29T00:54:34;7.70;;;2.70;;
76749;SDS011;66447;35.844;14.468;2023-04-29T01:25:06;4.82;;;3.10;;
76749;SDS011;66447;35.844;14.468;2023-04-29T01:40:32;3.75;;;2.55;;
76749;SDS011;66447;35.844;14.468;2023-04-29T01:55:37;6.75;;;2.38;;
76749;SDS011;66447;35.844;14.468;2023-04-29T02:10:39;6.25;;;2.97;;
76749;SDS011;66447;35.844;14.468;2023-04-29T02:25:40;4.55;;;2.60;;
76749;SDS011;66447;35.844;14.468;2023-04-29T02:40:41;5.72;;;2.42;;
76749;SDS011;66447;35.844;14.468;2023-04-29T02:55:43;7.47;;;2.60;;
76749;SDS011;66447;35.844;14.468;2023-04-29T03:10:44;7.38;;;3.45;;
76749;SDS011;66447;35.844;14.468;2023-04-29T03:25:45;4.60;;;2.67;;
76749;SDS011;66447;35.844;14.468;2023-04-29T03:40:47;4.22;;;2.60;;
76749;SDS011;66447;35.844;14.468;2023-04-29T03:55:48;8.55;;;3.20;;
76749;SDS011;66447;35.844;14.468;2023-04-29T04:10:49;8.15;;;3.35;;
76749;SDS011;66447;35.844;14.468;2023-04-29T04:25:50;6.15;;;3.28;;
76749;SDS011;66447;35.844;14.468;2023-04-29T04:40:53;8.65;;;2.88;;
76749;SDS011;66447;35.844;14.468;2023-04-29T04:55:54;5.18;;;2.42;;
76749;SDS011;66447;35.844;14.468;2023-04-29T05:11:00;8.05;;;2.80;;
76749;SDS011;66447;35.844;14.468;2023-04-29T05:26:02;3.75;;;1.98;;
76749;SDS011;66447;35.844;14.468;2023-04-29T05:41:03;8.07;;;2.00;;
76749;SDS011;66447;35.844;14.468;2023-04-29T05:56:05;5.72;;;1.90;;
76749;SDS011;66447;35.844;14.468;2023-04-29T06:11:07;9.23;;;2.20;;
76749;SDS011;66447;35.844;14.468;2023-04-29T06:26:08;7.32;;;1.73;;
76749;SDS011;66447;35.844;14.468;2023-04-29T06:41:10;6.35;;;1.83;;
76749;SDS011;66447;35.844;14.468;2023-04-29T06:56:12;6.80;;;1.38;;
76749;SDS011;66447;35.844;14.468;2023-04-29T07:11:13;5.82;;;1.33;;
76749;SDS011;66447;35.844;14.468;2023-04-29T07:26:15;4.32;;;1.30;;
76749;SDS011;66447;35.844;14.468;2023-04-29T07:41:17;6.45;;;1.60;;
76749;SDS011;66447;35.844;14.468;2023-04-29T07:56:19;8.38;;;2.85;;
76749;SDS011;66447;35.844;14.468;2023-04-29T08:11:22;5.43;;;1.30;;
76749;SDS011;66447;35.844;14.468;2023-04-29T08:26:25;7.83;;;1.60;;
76749;SDS011;66447;35.844;14.468;2023-04-29T08:57:25;7.07;;;1.27;;
76749;SDS011;66447;35.844;14.468;2023-04-29T09:12:28;5.60;;;1.10;;
76749;SDS011;66447;35.844;14.468;2023-04-29T09:27:29;5.73;;;1.10;;
76749;SDS011;66447;35.844;14.468;2023-04-29T09:42:41;4.30;;;1.23;;
76749;SDS011;66447;35.844;14.468;2023-04-29T09:57:49;5.55;;;1.30;;
76749;SDS011;66447;35.844;14.468;2023-04-29T10:12:53;6.30;;;1.83;;
76749;SDS011;66447;35.844;14.468;2023-04-29T10:27:54;6.60;;;2.08;;
76749;SDS011;66447;35.844;14.468;2023-04-29T10:42:57;9.00;;;2.33;;
76749;SDS011;66447;35.844;14.468;2023-04-29T12:03:18;7.80;;;1.50;;
76749;SDS011;66447;35.844;14.468;2023-04-29T12:18:21;10.67;;;2.10;;
76749;SDS011;66447;35.844;14.468;2023-04-29T12:33:23;6.32;;;1.90;;
76749;SDS011;66447;35.844;14.468;2023-04-29T12:48:34;6.60;;;1.60;;
76749;SDS011;66447;35.844;14.468;2023-04-29T13:03:45;6.33;;;2.10;;
76749;SDS011;66447;35.844;14.468;2023-04-29T13:18:48;12.93;;;2.10;;
76749;SDS011;66447;35.844;14.468;2023-04-29T13:33:49;6.83;;;1.60;;
76749;SDS011;66447;35.844;14.468;2023-04-29T13:48:51;9.80;;;2.33;;
76749;SDS011;66447;35.844;14.468;2023-04-29T14:03:55;8.40;;;1.60;;
76749;SDS011;66447;35.844;14.468;2023-04-29T14:18:56;7.60;;;2.30;;
76749;SDS011;66447;35.844;14.468;2023-04-29T14:33:58;9.93;;;2.23;;
76749;SDS011;66447;35.844;14.468;2023-04-29T14:48:59;9.10;;;2.10;;
76749;SDS011;66447;35.844;14.468;2023-04-29T15:04:01;8.03;;;2.40;;
76749;SDS011;66447;35.844;14.468;2023-04-29T15:19:03;13.80;;;2.13;;
76749;SDS011;66447;35.844;14.468;2023-04-29T15:34:05;7.93;;;2.00;;
76749;SDS011;66447;35.844;14.468;2023-04-29T15:49:06;8.77;;;2.60;;
76749;SDS011;66447;35.844;14.468;2023-04-29T16:04:08;9.27;;;2.55;;
76749;SDS011;66447;35.844;14.468;2023-04-29T16:19:09;12.98;;;2.65;;
76749;SDS011;66447;35.844;14.468;2023-04-29T16:34:10;11.35;;;3.85;;
76749;SDS011;66447;35.844;14.468;2023-04-29T16:49:13;11.95;;;3.10;;
76749;SDS011;66447;35.844;14.468;2023-04-29T17:04:18;18.45;;;3.63;;
76749;SDS011;66447;35.844;14.468;2023-04-29T17:19:23;12.40;;;3.72;;
76749;SDS011;66447;35.844;14.468;2023-04-29T17:34:28;13.63;;;4.72;;
76749;SDS011;66447;35.844;14.468;2023-04-29T17:49:30;13.20;;;4.45;;
76749;SDS011;66447;35.844;14.468;2023-04-29T18:04:31;16.52;;;4.47;;
76749;SDS011;66447;35.844;14.468;2023-04-29T18:19:33;14.23;;;5.57;;
76749;SDS011;66447;35.844;14.468;2023-04-29T18:34:35;11.30;;;4.70;;
76749;SDS011;66447;35.844;14.468;2023-04-29T18:49:36;14.25;;;4.07;;
76749;SDS011;66447;35.844;14.468;2023-04-29T19:04:37;12.20;;;3.50;;
76749;SDS011;66447;35.844;14.468;2023-04-29T19:19:39;17.17;;;4.55;;
76749;SDS011;66447;35.844;14.468;2023-04-29T19:34:40;14.93;;;5.80;;
76749;SDS011;66447;35.844;14.468;2023-04-29T19:49:42;14.70;;;6.50;;
76749;SDS011;66447;35.844;14.468;2023-04-29T20:04:43;14.45;;;6.57;;
76749;SDS011;66447;35.844;14.468;2023-04-29T20:19:45;19.23;;;5.50;;
76749;SDS011;66447;35.844;14.468;2023-04-29T20:34:46;16.45;;;4.60;;
76749;SDS011;66447;35.844;14.468;2023-04-29T20:49:47;22.20;;;5.47;;
76749;SDS011;66447;35.844;14.468;2023-04-29T21:04:49;16.67;;;5.22;;
76749;SDS011;66447;35.844;14.468;2023-04-29T21:19:50;15.73;;;4.80;;
76749;SDS011;66447;35.844;14.468;2023-04-29T21:34:51;17.08;;;5.47;;
76749;SDS011;66447;35.844;14.468;2023-04-29T21:49:53;15.20;;;4.63;;
76749;SDS011;66447;35.844;14.468;2023-04-29T22:04:54;13.70;;;5.68;;
76749;SDS011;66447;35.844;14.468;2023-04-29T22:19:55;10.68;;;4.60;;
76749;SDS011;66447;35.844;14.468;2023-04-29T22:34:57;22.50;;;7.03;;
76749;SDS011;66447;35.844;14.468;2023-04-29T22:49:58;16.20;;;4.45;;
76749;SDS011;66447;35.844;14.468;2023-04-29T23:04:59;17.52;;;4.70;;
76749;SDS011;66447;35.844;14.468;2023-04-29T23:20:02;13.27;;;4.30;;
76749;SDS011;66447;35.844;14.468;2023-04-29T23:35:04;14.00;;;4.70;;
76749;SDS011;66447;35.844;14.468;2023-04-29T23:50:06;16.58;;;4.57;;
